Browns Point, Washington
Current Conditions -  °F | °C
As of 9:53 AM on Friday 31 Oct 2014 (Local Time) from KTIW Reporting Station
Light Rain Light Rain  
Wind Chill: 50°   Ceiling: 6000
Heat Index: 50°   Visibility: 4mi
Dew Point: 48°   Wind: 7mph
Humidity: 93%   Direction: 180°S
Pressure: 29.79"   Gusts: NA
Location:  47.2894°N, 122.391°W
Report Text: KTIW 311653Z 18006KT 4SM -RA BR SCT006 BKN060 OVC080 10/09 A2979 RMK AO2 SLP087 P0005 T01000089
Loading
Personal Weather Stations






























Interactive Weather Map
Tropical Storm Tracking
New forecast layout! Learn more

10-Day Weather Forecast

Advertisements
Track Severe Weather on mobile